createdAt,value
2019-02-18T00:01:07.262Z,3.69
2019-02-18T00:03:36.746Z,3.66
2019-02-18T00:06:06.216Z,3.72
2019-02-18T00:08:36.233Z,3.79
2019-02-18T00:11:05.695Z,3.86
2019-02-18T00:13:36.262Z,3.73
2019-02-18T00:16:05.857Z,3.60
2019-02-18T00:18:36.238Z,3.27
2019-02-18T00:21:06.037Z,3.32
2019-02-18T00:23:36.235Z,3.45
2019-02-18T00:26:05.688Z,3.50
2019-02-18T00:28:36.979Z,3.44
2019-02-18T00:31:06.500Z,3.47
2019-02-18T00:33:36.304Z,3.43
2019-02-18T00:36:05.779Z,3.43
2019-02-18T00:38:36.229Z,3.45
2019-02-18T00:41:05.677Z,3.47
2019-02-18T00:43:36.256Z,3.39
2019-02-18T00:46:05.777Z,3.43
2019-02-18T00:48:36.251Z,3.36
2019-02-18T00:51:05.785Z,3.22
2019-02-18T00:53:36.277Z,3.03
2019-02-18T00:56:05.734Z,3.24
2019-02-18T00:58:36.248Z,3.27
2019-02-18T01:01:05.730Z,3.29
2019-02-18T01:03:36.264Z,3.22
2019-02-18T01:06:05.887Z,3.26
2019-02-18T01:08:36.457Z,3.12
2019-02-18T01:11:05.986Z,2.97
2019-02-18T01:13:36.453Z,2.87
2019-02-18T01:16:05.998Z,3.09
2019-02-18T01:18:36.631Z,3.01
2019-02-18T01:21:06.089Z,2.95
2019-02-18T01:23:36.440Z,2.99
2019-02-18T01:26:06.002Z,2.87
2019-02-18T01:28:36.466Z,2.68
2019-02-18T01:31:06.064Z,2.80
2019-02-18T01:33:36.495Z,2.77
2019-02-18T01:36:06.027Z,2.69
2019-02-18T01:38:36.756Z,2.72
2019-02-18T01:41:06.218Z,2.75
2019-02-18T01:43:36.672Z,2.72
2019-02-18T01:46:06.296Z,2.69
2019-02-18T01:48:36.662Z,2.56
2019-02-18T01:51:06.118Z,2.68
2019-02-18T01:53:36.684Z,2.72
2019-02-18T01:56:06.212Z,2.72
2019-02-18T01:58:36.673Z,2.69
2019-02-18T02:01:06.221Z,2.69
2019-02-18T02:03:36.681Z,2.69
2019-02-18T02:06:06.234Z,2.65
2019-02-18T02:08:36.679Z,2.66
2019-02-18T02:11:06.208Z,2.47
2019-02-18T02:13:37.629Z,2.50
2019-02-18T02:16:09.003Z,2.29
2019-02-18T02:18:38.464Z,2.46
2019-02-18T02:21:08.087Z,2.51
2019-02-18T02:23:37.554Z,2.56
2019-02-18T02:26:07.035Z,2.63
2019-02-18T02:28:36.688Z,2.69
2019-02-18T02:31:06.135Z,2.73
2019-02-18T02:33:36.701Z,2.55
2019-02-18T02:36:06.182Z,2.47
2019-02-18T02:38:36.681Z,2.19
2019-02-18T02:41:06.311Z,1.85
2019-02-18T02:43:36.670Z,2.17
2019-02-18T02:46:06.129Z,2.14
2019-02-18T02:48:36.723Z,2.23
2019-02-18T02:51:06.253Z,2.32
2019-02-18T02:53:36.734Z,2.39
2019-02-18T02:56:06.195Z,2.44
2019-02-18T02:58:36.710Z,2.52
2019-02-18T03:01:06.259Z,2.48
2019-02-18T03:03:36.715Z,2.27
2019-02-18T03:06:06.261Z,2.12
2019-02-18T03:08:36.721Z,1.99
2019-02-18T03:11:06.263Z,1.89
2019-02-18T03:13:36.751Z,1.92
2019-02-18T03:16:06.750Z,2.09
2019-02-18T03:18:36.711Z,2.27
2019-02-18T03:21:06.206Z,2.27
2019-02-18T03:23:36.718Z,2.09
2019-02-18T03:26:06.182Z,1.96
2019-02-18T03:28:53.031Z,1.88
2019-02-18T03:31:26.414Z,2.04
2019-02-18T03:34:09.437Z,2.21
2019-02-18T03:36:38.901Z,2.24
2019-02-18T03:39:08.402Z,2.13
2019-02-18T03:41:40.804Z,2.28
2019-02-18T03:44:09.033Z,2.27
2019-02-18T03:46:38.515Z,1.96
2019-02-18T03:49:08.043Z,2.01
2019-02-18T03:51:37.514Z,2.03
2019-02-18T03:54:07.129Z,2.06
2019-02-18T03:56:36.660Z,1.99
2019-02-18T03:59:06.120Z,2.06
2019-02-18T04:01:35.742Z,2.09
2019-02-18T04:04:05.374Z,1.95
2019-02-18T04:06:34.844Z,1.99
2019-02-18T04:09:05.187Z,1.98
2019-02-18T04:11:34.620Z,2.02
2019-02-18T04:14:04.105Z,1.94
2019-02-18T04:16:33.570Z,1.95
2019-02-18T04:19:03.038Z,1.86
2019-02-18T04:21:32.514Z,1.82
2019-02-18T04:24:01.996Z,1.96
2019-02-18T04:26:31.459Z,1.88
2019-02-18T04:29:01.170Z,1.87
2019-02-18T04:31:30.733Z,1.67
2019-02-18T04:34:00.198Z,1.55
2019-02-18T04:36:29.650Z,1.47
2019-02-18T04:38:59.137Z,1.35
2019-02-18T04:41:28.608Z,1.43
2019-02-18T04:43:58.094Z,1.49
2019-02-18T04:46:27.562Z,1.48
2019-02-18T04:48:57.020Z,1.71
2019-02-18T04:51:26.506Z,1.74
2019-02-18T04:53:56.040Z,1.78
2019-02-18T04:56:25.509Z,1.66
2019-02-18T04:58:54.997Z,1.62
2019-02-18T05:01:24.464Z,1.63
2019-02-18T05:03:54.008Z,1.59
2019-02-18T05:06:25.431Z,1.61
2019-02-18T05:09:04.806Z,1.65
2019-02-18T05:11:25.902Z,1.68
2019-02-18T05:13:55.374Z,1.72
2019-02-18T05:16:24.839Z,1.70
2019-02-18T05:18:54.326Z,1.69
2019-02-18T05:21:23.914Z,1.68
2019-02-18T05:23:53.455Z,1.65
2019-02-18T05:26:22.927Z,1.57
2019-02-18T05:28:52.397Z,1.43
2019-02-18T05:31:21.878Z,1.24
2019-02-18T05:33:51.385Z,1.20
2019-02-18T05:36:20.824Z,1.34
2019-02-18T05:38:50.302Z,1.36
2019-02-18T05:41:19.792Z,1.45
2019-02-18T05:43:49.288Z,1.54
2019-02-18T05:46:18.727Z,1.11
2019-02-18T05:48:48.213Z,1.57
2019-02-18T05:51:17.674Z,1.30
2019-02-18T05:53:47.141Z,1.52
2019-02-18T05:56:16.626Z,1.40
2019-02-18T05:58:46.105Z,1.34
2019-02-18T06:01:17.219Z,1.45
2019-02-18T06:03:46.683Z,1.52
2019-02-18T06:06:16.171Z,1.55
2019-02-18T06:08:45.885Z,1.59
2019-02-18T06:11:15.367Z,1.59
2019-02-18T06:13:44.849Z,1.65
2019-02-18T06:16:14.334Z,1.74
2019-02-18T06:18:43.801Z,1.70
2019-02-18T06:21:13.271Z,1.69
2019-02-18T06:23:42.763Z,1.62
2019-02-18T06:26:12.220Z,1.55
2019-02-18T06:28:41.694Z,1.44
2019-02-18T06:31:11.181Z,1.19
2019-02-18T06:33:40.658Z,1.09
2019-02-18T06:36:10.123Z,1.03
2019-02-18T06:38:39.611Z,0.98
2019-02-18T06:41:09.135Z,0.99
2019-02-18T06:43:38.670Z,1.10
2019-02-18T06:46:09.797Z,1.23
2019-02-18T06:48:40.886Z,1.36
2019-02-18T06:51:10.377Z,1.21
2019-02-18T06:53:39.836Z,1.20
2019-02-18T06:56:09.318Z,1.03
2019-02-18T06:58:40.425Z,1.11
2019-02-18T07:01:11.603Z,1.28
2019-02-18T07:03:42.726Z,1.39
2019-02-18T07:06:19.504Z,1.61
2019-02-18T07:09:02.157Z,1.68
2019-02-18T07:11:45.354Z,1.66
2019-02-18T07:14:15.092Z,1.76
2019-02-18T07:16:44.580Z,1.82
2019-02-18T07:19:14.305Z,1.90
2019-02-18T07:21:43.773Z,1.99
2019-02-18T07:24:15.315Z,1.94
2019-02-18T07:26:44.437Z,1.91
2019-02-18T07:29:13.903Z,2.13
2019-02-18T07:31:43.387Z,2.29
2019-02-18T07:34:12.868Z,2.28
2019-02-18T07:36:42.328Z,2.37
2019-02-18T07:39:11.812Z,2.40
2019-02-18T07:41:41.291Z,2.43
2019-02-18T07:44:10.754Z,2.55
2019-02-18T07:46:40.228Z,2.63
2019-02-18T07:49:09.688Z,2.88
2019-02-18T07:51:39.159Z,3.07
2019-02-18T07:54:10.277Z,3.11
2019-02-18T07:56:39.844Z,3.11
2019-02-18T07:59:09.318Z,3.15
2019-02-18T08:01:38.832Z,3.29
2019-02-18T08:04:08.317Z,3.38
2019-02-18T08:06:37.785Z,3.51
2019-02-18T08:09:07.500Z,3.79
2019-02-18T08:11:36.947Z,3.84
2019-02-18T08:14:06.413Z,4.03
2019-02-18T08:16:35.867Z,4.10
2019-02-18T08:19:05.340Z,4.07
2019-02-18T08:21:34.803Z,4.21
2019-02-18T08:24:04.258Z,4.26
2019-02-18T08:26:33.730Z,4.27
2019-02-18T08:29:03.187Z,4.38
2019-02-18T08:31:32.636Z,4.45
2019-02-18T08:34:02.112Z,4.56
2019-02-18T08:36:31.567Z,4.70
2019-02-18T08:39:01.055Z,4.82
2019-02-18T08:41:30.509Z,5.08
2019-02-18T08:43:59.981Z,5.18
2019-02-18T08:46:29.440Z,5.26
2019-02-18T08:48:58.920Z,5.38
2019-02-18T08:51:28.397Z,5.52
2019-02-18T08:53:57.853Z,5.57
2019-02-18T08:56:27.319Z,5.69
2019-02-18T08:58:56.796Z,5.76
2019-02-18T09:01:26.258Z,5.70
2019-02-18T09:03:55.728Z,5.84
2019-02-18T09:06:25.183Z,5.98
2019-02-18T09:08:54.635Z,6.15
2019-02-18T09:11:24.197Z,6.24
2019-02-18T09:13:53.789Z,6.29
2019-02-18T09:16:23.261Z,6.43
2019-02-18T09:18:52.731Z,6.60
2019-02-18T09:21:22.202Z,6.93
2019-02-18T09:23:59.017Z,7.22
2019-02-18T09:26:28.492Z,7.36
2019-02-18T09:28:57.964Z,7.40
2019-02-18T09:31:28.685Z,7.54
2019-02-18T09:33:58.160Z,7.64
2019-02-18T09:36:27.611Z,7.78
2019-02-18T09:38:57.140Z,8.05
2019-02-18T09:41:26.617Z,8.10
2019-02-18T09:43:56.063Z,8.04
2019-02-18T09:46:25.592Z,7.99
2019-02-18T09:48:55.072Z,8.31
2019-02-18T09:51:24.530Z,8.49
2019-02-18T09:53:53.999Z,8.53
2019-02-18T09:56:23.464Z,8.40
2019-02-18T09:58:52.920Z,8.80
2019-02-18T10:01:22.464Z,8.86
2019-02-18T10:03:51.975Z,8.87
2019-02-18T10:06:21.413Z,9.03
2019-02-18T10:08:50.902Z,9.03
2019-02-18T10:11:20.351Z,9.32
2019-02-18T10:13:49.804Z,9.54
2019-02-18T10:16:19.276Z,9.70
2019-02-18T10:18:48.736Z,9.81
2019-02-18T10:21:18.219Z,10.02
2019-02-18T10:23:47.673Z,10.22
2019-02-18T10:26:17.128Z,10.43
2019-02-18T10:28:46.606Z,10.25
2019-02-18T10:31:16.064Z,10.54
2019-02-18T10:33:45.522Z,10.68
2019-02-18T10:36:14.998Z,10.79
2019-02-18T10:38:44.455Z,10.90
2019-02-18T10:41:13.916Z,11.07
2019-02-18T10:43:43.399Z,11.00
2019-02-18T10:46:12.867Z,11.13
2019-02-18T10:48:42.579Z,11.09
2019-02-18T10:51:12.122Z,11.17
2019-02-18T10:53:41.587Z,11.40
2019-02-18T10:56:11.043Z,11.49
2019-02-18T10:58:40.517Z,11.57
2019-02-18T11:01:10.043Z,11.79
2019-02-18T11:03:39.504Z,11.80
2019-02-18T11:06:09.408Z,12.13
2019-02-18T11:08:38.991Z,12.18
2019-02-18T11:11:16.635Z,12.33
2019-02-18T11:13:39.649Z,12.36
2019-02-18T11:16:09.356Z,12.39
2019-02-18T11:18:38.832Z,12.43
2019-02-18T11:21:08.570Z,12.71
2019-02-18T11:23:38.051Z,12.96
2019-02-18T11:26:07.505Z,12.77
2019-02-18T11:28:37.266Z,12.97
2019-02-18T11:31:06.820Z,12.95
2019-02-18T11:33:37.281Z,13.14
2019-02-18T11:36:06.768Z,13.06
2019-02-18T11:38:37.207Z,13.16
2019-02-18T11:41:06.733Z,13.25
2019-02-18T11:43:37.223Z,13.32
2019-02-18T11:46:06.698Z,13.52
2019-02-18T11:48:37.263Z,13.50
2019-02-18T11:51:06.700Z,13.79
2019-02-18T11:53:37.399Z,13.97
2019-02-18T11:56:06.892Z,14.30
2019-02-18T11:58:37.402Z,14.40
2019-02-18T12:01:07.000Z,14.77
2019-02-18T12:03:37.401Z,14.78
2019-02-18T12:06:06.883Z,14.88
2019-02-18T12:08:37.402Z,15.44
2019-02-18T12:11:06.956Z,15.56
2019-02-18T12:13:37.401Z,16.08
2019-02-18T12:16:07.412Z,16.15
2019-02-18T12:18:37.413Z,16.39
2019-02-18T12:21:06.870Z,16.71
2019-02-18T12:23:37.431Z,16.75
2019-02-18T12:26:06.908Z,16.98
2019-02-18T12:28:37.682Z,17.23
2019-02-18T12:31:07.596Z,17.27
2019-02-18T12:33:37.437Z,17.24
2019-02-18T12:36:07.149Z,17.33
2019-02-18T12:38:37.425Z,17.40
2019-02-18T12:41:06.903Z,17.72
2019-02-18T12:43:37.451Z,18.43
2019-02-18T12:46:15.554Z,18.55
2019-02-18T12:48:38.206Z,18.71
2019-02-18T12:51:07.909Z,18.78
2019-02-18T12:53:37.441Z,18.60
2019-02-18T12:56:06.980Z,18.28
2019-02-18T12:58:37.515Z,18.61
2019-02-18T13:01:08.188Z,18.81
2019-02-18T13:03:37.743Z,19.26
2019-02-18T13:06:07.215Z,19.51
2019-02-18T13:08:37.458Z,20.31
2019-02-18T13:11:06.995Z,20.58
2019-02-18T13:13:37.419Z,20.98
2019-02-18T13:16:06.907Z,20.93
2019-02-18T13:18:37.441Z,21.20
2019-02-18T13:21:06.906Z,21.59
2019-02-18T13:23:37.497Z,21.31
2019-02-18T13:26:06.978Z,21.71
2019-02-18T13:28:37.440Z,21.81
2019-02-18T13:31:06.905Z,21.27
2019-02-18T13:33:37.649Z,21.18
2019-02-18T13:36:11.254Z,20.56
2019-02-18T13:38:40.739Z,20.62
2019-02-18T13:41:10.360Z,20.61
2019-02-18T13:43:39.823Z,20.52
2019-02-18T13:46:09.564Z,20.22
2019-02-18T13:48:39.114Z,20.10
2019-02-18T13:51:08.573Z,20.51
2019-02-18T13:53:38.039Z,20.36
2019-02-18T13:56:07.946Z,20.14
2019-02-18T13:58:37.633Z,20.33
2019-02-18T14:01:07.815Z,20.03
2019-02-18T14:03:37.909Z,20.30
2019-02-18T14:06:07.444Z,20.44
2019-02-18T14:08:37.665Z,20.54
2019-02-18T14:11:07.137Z,20.84
2019-02-18T14:13:37.629Z,20.63
2019-02-18T14:16:07.257Z,20.89
2019-02-18T14:18:37.651Z,21.33
2019-02-18T14:21:07.108Z,21.78
2019-02-18T14:23:37.670Z,21.60
2019-02-18T14:26:07.589Z,21.43
2019-02-18T14:28:37.666Z,21.71
2019-02-18T14:31:07.197Z,21.53
2019-02-18T14:33:37.676Z,21.83
2019-02-18T14:36:07.141Z,21.94
2019-02-18T14:38:37.912Z,22.40
2019-02-18T14:41:07.603Z,22.84
2019-02-18T14:43:37.739Z,22.55
2019-02-18T14:46:07.297Z,22.49
2019-02-18T14:48:37.670Z,23.16
2019-02-18T14:51:07.134Z,23.51
2019-02-18T14:53:37.693Z,24.15
2019-02-18T14:56:07.394Z,24.91
2019-02-18T14:58:37.665Z,25.51
2019-02-18T15:01:07.776Z,25.78
2019-02-18T15:03:37.830Z,26.04
2019-02-18T15:06:07.318Z,26.25
2019-02-18T15:08:37.674Z,26.77
2019-02-18T15:11:07.845Z,26.78
2019-02-18T15:13:37.694Z,27.69
2019-02-18T15:16:07.226Z,28.53
2019-02-18T15:18:37.688Z,28.86
2019-02-18T15:21:07.173Z,29.01
2019-02-18T15:23:37.711Z,28.06
2019-02-18T15:26:07.447Z,26.79
2019-02-18T15:28:37.720Z,27.15
2019-02-18T15:31:07.174Z,27.66
2019-02-18T15:33:37.709Z,26.33
2019-02-18T15:36:07.198Z,25.82
2019-02-18T15:38:37.708Z,26.09
2019-02-18T15:41:07.238Z,26.09
2019-02-18T15:43:37.724Z,26.12
2019-02-18T15:46:07.315Z,26.34
2019-02-18T15:48:37.702Z,26.55
2019-02-18T15:51:07.188Z,26.39
2019-02-18T15:53:37.718Z,25.78
2019-02-18T15:56:07.240Z,25.24
2019-02-18T15:58:37.738Z,24.26
2019-02-18T16:01:07.342Z,23.28
2019-02-18T16:03:37.787Z,22.28
2019-02-18T16:06:07.264Z,21.39
2019-02-18T16:08:37.860Z,20.78
2019-02-18T16:11:07.329Z,20.12
2019-02-18T16:13:37.725Z,19.47
2019-02-18T16:16:07.188Z,19.10
2019-02-18T16:18:37.931Z,18.74
2019-02-18T16:21:07.395Z,17.82
2019-02-18T16:23:37.907Z,17.48
2019-02-18T16:26:07.387Z,17.17
2019-02-18T16:28:38.011Z,16.84
2019-02-18T16:31:07.485Z,16.27
2019-02-18T16:33:37.955Z,16.06
2019-02-18T16:36:07.433Z,15.88
2019-02-18T16:38:37.918Z,15.41
2019-02-18T16:41:07.398Z,15.23
2019-02-18T16:43:37.951Z,15.08
2019-02-18T16:46:07.411Z,14.98
2019-02-18T16:48:37.932Z,14.81
2019-02-18T16:51:07.404Z,14.85
2019-02-18T16:53:38.022Z,14.70
2019-02-18T16:56:07.474Z,14.37
2019-02-18T16:58:37.954Z,14.23
2019-02-18T17:01:08.233Z,14.06
2019-02-18T17:03:38.163Z,13.97
2019-02-18T17:06:07.651Z,13.85
2019-02-18T17:08:37.930Z,13.67
2019-02-18T17:11:07.403Z,13.66
2019-02-18T17:13:38.035Z,13.58
2019-02-18T17:16:07.492Z,13.32
2019-02-18T17:18:38.016Z,13.21
2019-02-18T17:21:07.576Z,13.13
2019-02-18T17:23:37.944Z,13.20
2019-02-18T17:26:07.400Z,13.13
2019-02-18T17:28:37.961Z,13.07
2019-02-18T17:31:07.416Z,12.81
2019-02-18T17:33:37.953Z,12.46
2019-02-18T17:36:07.430Z,12.30
2019-02-18T17:38:38.135Z,12.21
2019-02-18T17:41:07.606Z,12.09
2019-02-18T17:43:38.128Z,11.97
2019-02-18T17:46:08.128Z,11.97
2019-02-18T17:48:38.144Z,11.85
2019-02-18T17:51:07.607Z,11.75
2019-02-18T17:53:38.186Z,11.70
2019-02-18T17:56:07.640Z,11.50
2019-02-18T17:58:38.140Z,11.41
2019-02-18T18:01:08.002Z,11.44
2019-02-18T18:03:38.413Z,11.46
2019-02-18T18:06:07.862Z,11.27
2019-02-18T18:08:38.203Z,11.00
2019-02-18T18:11:07.681Z,10.85
2019-02-18T18:13:38.167Z,10.71
2019-02-18T18:16:10.847Z,10.60
2019-02-18T18:18:40.318Z,10.52
2019-02-18T18:21:09.790Z,10.46
2019-02-18T18:23:39.262Z,10.33
2019-02-18T18:26:08.715Z,9.81
2019-02-18T18:28:38.376Z,9.26
2019-02-18T18:31:07.825Z,9.16
2019-02-18T18:33:38.139Z,9.38
2019-02-18T18:36:07.623Z,9.43
2019-02-18T18:38:38.307Z,9.48
2019-02-18T18:41:07.764Z,9.46
2019-02-18T18:43:38.370Z,9.40
2019-02-18T18:46:07.826Z,9.34
2019-02-18T18:48:38.531Z,9.29
2019-02-18T18:51:07.995Z,9.25
2019-02-18T18:53:38.690Z,9.05
2019-02-18T18:56:08.173Z,9.08
2019-02-18T18:58:38.869Z,8.67
2019-02-18T19:01:08.320Z,8.48
2019-02-18T19:03:38.873Z,8.31
2019-02-18T19:06:08.341Z,8.55
2019-02-18T19:08:39.035Z,8.64
2019-02-18T19:11:08.511Z,8.78
2019-02-18T19:13:42.084Z,8.64
2019-02-18T19:16:10.266Z,8.60
2019-02-18T19:18:39.719Z,8.60
2019-02-18T19:21:09.219Z,8.59
2019-02-18T19:23:39.263Z,8.60
2019-02-18T19:26:08.719Z,8.61
2019-02-18T19:28:39.243Z,8.59
2019-02-18T19:31:08.723Z,8.59
2019-02-18T19:33:39.492Z,8.58
2019-02-18T19:36:08.946Z,8.60
2019-02-18T19:38:40.883Z,8.61
2019-02-18T19:41:10.340Z,8.63
2019-02-18T19:43:39.831Z,8.61
2019-02-18T19:46:09.282Z,8.60
2019-02-18T19:48:39.252Z,8.55
2019-02-18T19:51:08.930Z,8.08
2019-02-18T19:53:40.906Z,7.29
2019-02-18T19:56:10.377Z,7.34
2019-02-18T19:58:39.836Z,7.56
2019-02-18T20:01:09.292Z,7.69
2019-02-18T20:03:39.441Z,7.84
2019-02-18T20:06:08.913Z,7.85
2019-02-18T20:08:39.456Z,7.86
2019-02-18T20:11:09.175Z,7.97
2019-02-18T20:13:39.445Z,7.94
2019-02-18T20:16:08.908Z,7.80
2019-02-18T20:18:39.482Z,7.80
2019-02-18T20:21:08.938Z,7.65
2019-02-18T20:23:39.871Z,7.51
2019-02-18T20:26:09.354Z,7.55
2019-02-18T20:28:39.459Z,7.57
2019-02-18T20:31:08.909Z,7.44
2019-02-18T20:33:39.484Z,7.49
2019-02-18T20:36:08.940Z,7.37
2019-02-18T20:38:39.480Z,7.33
2019-02-18T20:41:08.941Z,7.29
2019-02-18T20:43:39.541Z,7.24
2019-02-18T20:46:09.195Z,7.08
2019-02-18T20:48:39.483Z,6.93
2019-02-18T20:51:08.941Z,6.66
2019-02-18T20:53:39.490Z,6.55
2019-02-18T20:56:08.946Z,6.70
2019-02-18T20:58:39.662Z,6.73
2019-02-18T21:01:09.138Z,6.70
2019-02-18T21:03:39.730Z,6.73
2019-02-18T21:06:09.213Z,6.87
2019-02-18T21:08:39.490Z,6.67
2019-02-18T21:11:09.339Z,6.64
2019-02-18T21:13:39.663Z,6.75
2019-02-18T21:16:09.127Z,6.73
2019-02-18T21:18:39.516Z,6.70
2019-02-18T21:21:08.967Z,6.62
2019-02-18T21:23:39.520Z,6.59
2019-02-18T21:26:09.001Z,6.56
2019-02-18T21:28:39.524Z,6.33
2019-02-18T21:31:08.999Z,6.40
2019-02-18T21:33:39.500Z,6.37
2019-02-18T21:36:08.986Z,6.10
2019-02-18T21:38:39.530Z,6.15
2019-02-18T21:41:09.270Z,6.13
2019-02-18T21:43:41.503Z,6.12
2019-02-18T21:46:10.963Z,6.02
2019-02-18T21:48:40.428Z,6.02
2019-02-18T21:51:09.913Z,5.98
2019-02-18T21:53:39.522Z,5.95
2019-02-18T21:56:09.413Z,5.87
2019-02-18T21:58:39.539Z,5.87
2019-02-18T22:01:08.996Z,5.85
2019-02-18T22:03:39.535Z,5.80
2019-02-18T22:06:09.022Z,5.83
2019-02-18T22:08:39.524Z,5.88
2019-02-18T22:11:08.982Z,5.87
2019-02-18T22:13:39.535Z,5.76
2019-02-18T22:16:09.055Z,5.78
2019-02-18T22:18:39.547Z,5.70
2019-02-18T22:21:09.002Z,5.60
2019-02-18T22:23:39.555Z,5.46
2019-02-18T22:26:09.020Z,5.30
2019-02-18T22:28:39.551Z,5.19
2019-02-18T22:31:09.024Z,5.31
2019-02-18T22:33:39.537Z,5.28
2019-02-18T22:36:09.088Z,5.29
2019-02-18T22:38:39.549Z,5.29
2019-02-18T22:41:09.007Z,5.25
2019-02-18T22:43:39.568Z,5.14
2019-02-18T22:46:09.022Z,5.22
2019-02-18T22:48:41.244Z,5.16
2019-02-18T22:51:10.749Z,5.05
2019-02-18T22:53:40.199Z,4.72
2019-02-18T22:56:09.677Z,4.84
2019-02-18T22:58:39.688Z,4.90
2019-02-18T23:01:09.479Z,4.90
2019-02-18T23:03:39.738Z,4.98
2019-02-18T23:06:09.286Z,5.14
2019-02-18T23:08:39.711Z,5.07
2019-02-18T23:11:09.168Z,5.05
2019-02-18T23:13:39.723Z,4.90
2019-02-18T23:16:09.196Z,5.13
2019-02-18T23:18:39.721Z,5.04
2019-02-18T23:21:09.193Z,5.01
2019-02-18T23:23:39.733Z,4.77
2019-02-18T23:26:09.181Z,4.74
2019-02-18T23:28:39.722Z,4.68
2019-02-18T23:31:09.180Z,4.76
2019-02-18T23:33:39.897Z,4.78
2019-02-18T23:36:09.349Z,4.77
2019-02-18T23:38:39.931Z,4.88
2019-02-18T23:41:09.415Z,4.91
2019-02-18T23:43:39.981Z,4.94
2019-02-18T23:46:09.434Z,5.10
2019-02-18T23:48:42.530Z,5.09
2019-02-18T23:51:12.011Z,5.15
2019-02-18T23:53:41.487Z,4.98
2019-02-18T23:56:10.939Z,4.78
2019-02-18T23:58:40.398Z,4.72
